sensor_id;sensor_type;location;lat;lon;timestamp;P1;durP1;ratioP1;P2;durP2;ratioP2
57846;SDS011;43675;50.030;21.952;2022-10-16T00:00:43;43.40;;;39.10;;
57846;SDS011;43675;50.030;21.952;2022-10-16T00:03:11;43.98;;;39.65;;
57846;SDS011;43675;50.030;21.952;2022-10-16T00:05:43;44.58;;;39.42;;
57846;SDS011;43675;50.030;21.952;2022-10-16T00:08:10;44.35;;;39.13;;
57846;SDS011;43675;50.030;21.952;2022-10-16T00:10:37;43.90;;;39.55;;
57846;SDS011;43675;50.030;21.952;2022-10-16T00:13:03;43.75;;;39.42;;
57846;SDS011;43675;50.030;21.952;2022-10-16T00:15:30;43.00;;;38.40;;
57846;SDS011;43675;50.030;21.952;2022-10-16T00:17:57;43.05;;;38.45;;
57846;SDS011;43675;50.030;21.952;2022-10-16T00:20:23;42.48;;;38.13;;
57846;SDS011;43675;50.030;21.952;2022-10-16T00:22:56;43.60;;;39.18;;
57846;SDS011;43675;50.030;21.952;2022-10-16T00:25:22;41.18;;;37.03;;
57846;SDS011;43675;50.030;21.952;2022-10-16T00:27:54;41.70;;;37.28;;
57846;SDS011;43675;50.030;21.952;2022-10-16T00:30:19;40.25;;;36.20;;
57846;SDS011;43675;50.030;21.952;2022-10-16T00:32:45;39.67;;;35.68;;
57846;SDS011;43675;50.030;21.952;2022-10-16T00:35:11;39.92;;;35.73;;
57846;SDS011;43675;50.030;21.952;2022-10-16T00:37:36;39.03;;;35.03;;
57846;SDS011;43675;50.030;21.952;2022-10-16T00:40:02;41.00;;;36.35;;
57846;SDS011;43675;50.030;21.952;2022-10-16T00:42:28;39.60;;;35.80;;
57846;SDS011;43675;50.030;21.952;2022-10-16T00:44:55;40.50;;;36.60;;
57846;SDS011;43675;50.030;21.952;2022-10-16T00:50:28;38.42;;;34.75;;
57846;SDS011;43675;50.030;21.952;2022-10-16T00:52:46;40.33;;;34.25;;
57846;SDS011;43675;50.030;21.952;2022-10-16T00:55:15;38.23;;;34.33;;
57846;SDS011;43675;50.030;21.952;2022-10-16T00:57:41;37.63;;;33.60;;
57846;SDS011;43675;50.030;21.952;2022-10-16T01:00:15;37.30;;;33.50;;
57846;SDS011;43675;50.030;21.952;2022-10-16T01:02:43;36.83;;;32.48;;
57846;SDS011;43675;50.030;21.952;2022-10-16T01:05:09;37.30;;;33.50;;
57846;SDS011;43675;50.030;21.952;2022-10-16T01:07:46;37.48;;;33.67;;
57846;SDS011;43675;50.030;21.952;2022-10-16T01:13:07;36.95;;;33.42;;
57846;SDS011;43675;50.030;21.952;2022-10-16T01:15:54;39.25;;;35.20;;
57846;SDS011;43675;50.030;21.952;2022-10-16T01:18:46;39.63;;;35.68;;
57846;SDS011;43675;50.030;21.952;2022-10-16T01:21:20;38.35;;;34.55;;
57846;SDS011;43675;50.030;21.952;2022-10-16T01:28:59;39.38;;;35.63;;
57846;SDS011;43675;50.030;21.952;2022-10-16T01:31:27;39.10;;;35.38;;
57846;SDS011;43675;50.030;21.952;2022-10-16T01:34:00;38.40;;;34.23;;
57846;SDS011;43675;50.030;21.952;2022-10-16T01:36:33;38.73;;;34.83;;
57846;SDS011;43675;50.030;21.952;2022-10-16T01:39:00;39.03;;;35.23;;
57846;SDS011;43675;50.030;21.952;2022-10-16T01:41:32;39.08;;;35.38;;
57846;SDS011;43675;50.030;21.952;2022-10-16T01:46:55;40.50;;;36.38;;
57846;SDS011;43675;50.030;21.952;2022-10-16T01:49:23;39.98;;;36.05;;
57846;SDS011;43675;50.030;21.952;2022-10-16T01:51:52;40.75;;;36.42;;
57846;SDS011;43675;50.030;21.952;2022-10-16T01:54:20;38.02;;;34.38;;
57846;SDS011;43675;50.030;21.952;2022-10-16T01:56:49;38.02;;;34.15;;
57846;SDS011;43675;50.030;21.952;2022-10-16T01:59:17;37.75;;;33.75;;
57846;SDS011;43675;50.030;21.952;2022-10-16T02:01:54;36.20;;;32.75;;
57846;SDS011;43675;50.030;21.952;2022-10-16T02:04:30;36.42;;;32.70;;
57846;SDS011;43675;50.030;21.952;2022-10-16T02:06:57;35.48;;;31.93;;
57846;SDS011;43675;50.030;21.952;2022-10-16T02:09:23;34.15;;;30.80;;
57846;SDS011;43675;50.030;21.952;2022-10-16T02:11:48;33.00;;;29.65;;
57846;SDS011;43675;50.030;21.952;2022-10-16T02:14:24;35.92;;;32.20;;
57846;SDS011;43675;50.030;21.952;2022-10-16T02:16:51;36.03;;;32.33;;
57846;SDS011;43675;50.030;21.952;2022-10-16T02:19:17;33.33;;;29.98;;
57846;SDS011;43675;50.030;21.952;2022-10-16T02:21:55;33.85;;;30.55;;
57846;SDS011;43675;50.030;21.952;2022-10-16T02:24:28;34.88;;;31.30;;
57846;SDS011;43675;50.030;21.952;2022-10-16T02:27:16;33.45;;;30.37;;
57846;SDS011;43675;50.030;21.952;2022-10-16T02:29:53;35.85;;;32.25;;
57846;SDS011;43675;50.030;21.952;2022-10-16T02:32:22;34.33;;;30.75;;
57846;SDS011;43675;50.030;21.952;2022-10-16T02:34:49;32.83;;;29.70;;
57846;SDS011;43675;50.030;21.952;2022-10-16T02:37:16;33.80;;;30.17;;
57846;SDS011;43675;50.030;21.952;2022-10-16T02:39:43;32.88;;;29.67;;
57846;SDS011;43675;50.030;21.952;2022-10-16T02:42:12;32.88;;;29.75;;
57846;SDS011;43675;50.030;21.952;2022-10-16T02:44:45;31.30;;;28.02;;
57846;SDS011;43675;50.030;21.952;2022-10-16T02:47:10;31.00;;;28.07;;
57846;SDS011;43675;50.030;21.952;2022-10-16T02:49:36;31.33;;;28.23;;
57846;SDS011;43675;50.030;21.952;2022-10-16T02:52:01;32.58;;;28.87;;
57846;SDS011;43675;50.030;21.952;2022-10-16T02:54:27;31.30;;;28.35;;
57846;SDS011;43675;50.030;21.952;2022-10-16T02:56:53;31.55;;;28.38;;
57846;SDS011;43675;50.030;21.952;2022-10-16T02:59:18;30.95;;;27.82;;
57846;SDS011;43675;50.030;21.952;2022-10-16T03:01:44;30.32;;;27.17;;
57846;SDS011;43675;50.030;21.952;2022-10-16T03:04:09;29.67;;;26.50;;
57846;SDS011;43675;50.030;21.952;2022-10-16T03:06:35;29.87;;;26.90;;
57846;SDS011;43675;50.030;21.952;2022-10-16T03:09:00;28.98;;;26.05;;
57846;SDS011;43675;50.030;21.952;2022-10-16T03:11:26;29.48;;;26.52;;
57846;SDS011;43675;50.030;21.952;2022-10-16T03:13:59;27.87;;;24.98;;
57846;SDS011;43675;50.030;21.952;2022-10-16T03:16:30;29.70;;;26.80;;
57846;SDS011;43675;50.030;21.952;2022-10-16T03:18:56;27.75;;;25.20;;
57846;SDS011;43675;50.030;21.952;2022-10-16T03:21:21;28.65;;;25.75;;
57846;SDS011;43675;50.030;21.952;2022-10-16T03:23:47;28.55;;;25.75;;
57846;SDS011;43675;50.030;21.952;2022-10-16T03:26:13;28.98;;;25.80;;
57846;SDS011;43675;50.030;21.952;2022-10-16T03:28:38;26.50;;;23.90;;
57846;SDS011;43675;50.030;21.952;2022-10-16T03:31:11;26.20;;;23.52;;
57846;SDS011;43675;50.030;21.952;2022-10-16T03:33:37;27.60;;;25.00;;
57846;SDS011;43675;50.030;21.952;2022-10-16T03:36:03;28.20;;;24.92;;
57846;SDS011;43675;50.030;21.952;2022-10-16T03:38:28;27.60;;;24.87;;
57846;SDS011;43675;50.030;21.952;2022-10-16T03:40:54;30.37;;;26.07;;
57846;SDS011;43675;50.030;21.952;2022-10-16T03:43:20;26.97;;;24.15;;
57846;SDS011;43675;50.030;21.952;2022-10-16T03:45:45;27.32;;;23.45;;
57846;SDS011;43675;50.030;21.952;2022-10-16T03:48:11;28.42;;;25.12;;
57846;SDS011;43675;50.030;21.952;2022-10-16T03:50:36;29.42;;;25.27;;
57846;SDS011;43675;50.030;21.952;2022-10-16T03:53:02;33.53;;;26.37;;
57846;SDS011;43675;50.030;21.952;2022-10-16T03:55:28;30.15;;;27.07;;
57846;SDS011;43675;50.030;21.952;2022-10-16T03:57:54;32.40;;;26.10;;
57846;SDS011;43675;50.030;21.952;2022-10-16T04:00:20;31.00;;;25.52;;
57846;SDS011;43675;50.030;21.952;2022-10-16T04:02:45;30.02;;;24.75;;
57846;SDS011;43675;50.030;21.952;2022-10-16T04:05:11;27.52;;;24.72;;
57846;SDS011;43675;50.030;21.952;2022-10-16T04:07:36;26.70;;;24.02;;
57846;SDS011;43675;50.030;21.952;2022-10-16T04:10:02;27.15;;;22.77;;
57846;SDS011;43675;50.030;21.952;2022-10-16T04:12:29;26.20;;;23.38;;
57846;SDS011;43675;50.030;21.952;2022-10-16T04:15:01;26.70;;;23.73;;
57846;SDS011;43675;50.030;21.952;2022-10-16T04:17:27;26.10;;;23.40;;
57846;SDS011;43675;50.030;21.952;2022-10-16T04:19:53;26.87;;;24.18;;
57846;SDS011;43675;50.030;21.952;2022-10-16T04:22:18;26.45;;;23.83;;
57846;SDS011;43675;50.030;21.952;2022-10-16T04:24:44;27.70;;;24.67;;
57846;SDS011;43675;50.030;21.952;2022-10-16T04:27:09;25.55;;;23.10;;
57846;SDS011;43675;50.030;21.952;2022-10-16T04:29:35;25.65;;;23.07;;
57846;SDS011;43675;50.030;21.952;2022-10-16T04:32:08;27.75;;;24.12;;
57846;SDS011;43675;50.030;21.952;2022-10-16T04:34:34;27.10;;;24.40;;
57846;SDS011;43675;50.030;21.952;2022-10-16T04:37:00;25.82;;;23.32;;
57846;SDS011;43675;50.030;21.952;2022-10-16T04:39:25;25.05;;;22.75;;
57846;SDS011;43675;50.030;21.952;2022-10-16T04:41:51;25.95;;;23.25;;
57846;SDS011;43675;50.030;21.952;2022-10-16T04:44:17;28.47;;;23.80;;
57846;SDS011;43675;50.030;21.952;2022-10-16T04:46:42;25.37;;;22.77;;
57846;SDS011;43675;50.030;21.952;2022-10-16T04:49:14;25.40;;;22.77;;
57846;SDS011;43675;50.030;21.952;2022-10-16T04:51:40;26.25;;;23.52;;
57846;SDS011;43675;50.030;21.952;2022-10-16T04:54:05;24.98;;;22.55;;
57846;SDS011;43675;50.030;21.952;2022-10-16T04:56:31;25.85;;;23.27;;
57846;SDS011;43675;50.030;21.952;2022-10-16T04:58:57;28.90;;;24.15;;
57846;SDS011;43675;50.030;21.952;2022-10-16T05:01:22;27.30;;;24.47;;
57846;SDS011;43675;50.030;21.952;2022-10-16T05:03:48;28.07;;;25.12;;
57846;SDS011;43675;50.030;21.952;2022-10-16T05:06:13;26.05;;;23.07;;
57846;SDS011;43675;50.030;21.952;2022-10-16T05:08:39;25.97;;;23.57;;
57846;SDS011;43675;50.030;21.952;2022-10-16T05:11:05;24.63;;;22.42;;
57846;SDS011;43675;50.030;21.952;2022-10-16T05:13:36;27.07;;;24.07;;
57846;SDS011;43675;50.030;21.952;2022-10-16T05:16:02;24.87;;;22.55;;
57846;SDS011;43675;50.030;21.952;2022-10-16T05:18:28;24.77;;;22.48;;
57846;SDS011;43675;50.030;21.952;2022-10-16T05:20:53;24.85;;;22.52;;
57846;SDS011;43675;50.030;21.952;2022-10-16T05:23:19;25.95;;;23.22;;
57846;SDS011;43675;50.030;21.952;2022-10-16T05:25:51;26.00;;;23.52;;
57846;SDS011;43675;50.030;21.952;2022-10-16T05:28:19;26.48;;;23.92;;
57846;SDS011;43675;50.030;21.952;2022-10-16T05:30:45;26.57;;;23.92;;
57846;SDS011;43675;50.030;21.952;2022-10-16T05:33:10;25.95;;;23.60;;
57846;SDS011;43675;50.030;21.952;2022-10-16T05:35:36;24.80;;;22.42;;
57846;SDS011;43675;50.030;21.952;2022-10-16T05:38:02;24.77;;;22.58;;
57846;SDS011;43675;50.030;21.952;2022-10-16T05:40:27;24.50;;;22.02;;
57846;SDS011;43675;50.030;21.952;2022-10-16T05:42:55;24.57;;;22.17;;
57846;SDS011;43675;50.030;21.952;2022-10-16T05:45:21;24.70;;;22.32;;
57846;SDS011;43675;50.030;21.952;2022-10-16T05:47:47;24.60;;;22.20;;
57846;SDS011;43675;50.030;21.952;2022-10-16T05:50:19;25.48;;;22.82;;
57846;SDS011;43675;50.030;21.952;2022-10-16T05:52:45;23.77;;;21.68;;
57846;SDS011;43675;50.030;21.952;2022-10-16T05:55:10;25.80;;;23.25;;
57846;SDS011;43675;50.030;21.952;2022-10-16T05:57:36;25.92;;;23.35;;
57846;SDS011;43675;50.030;21.952;2022-10-16T06:00:02;25.43;;;22.90;;
57846;SDS011;43675;50.030;21.952;2022-10-16T06:02:28;25.52;;;22.95;;
57846;SDS011;43675;50.030;21.952;2022-10-16T06:04:54;26.30;;;23.67;;
57846;SDS011;43675;50.030;21.952;2022-10-16T06:07:20;24.85;;;22.52;;
57846;SDS011;43675;50.030;21.952;2022-10-16T06:09:49;30.23;;;21.62;;
57846;SDS011;43675;50.030;21.952;2022-10-16T06:12:23;24.30;;;21.65;;
57846;SDS011;43675;50.030;21.952;2022-10-16T06:14:48;27.22;;;22.82;;
57846;SDS011;43675;50.030;21.952;2022-10-16T06:17:14;25.08;;;22.52;;
57846;SDS011;43675;50.030;21.952;2022-10-16T06:19:40;25.70;;;22.65;;
57846;SDS011;43675;50.030;21.952;2022-10-16T06:22:06;23.92;;;21.60;;
57846;SDS011;43675;50.030;21.952;2022-10-16T06:24:31;24.63;;;22.17;;
57846;SDS011;43675;50.030;21.952;2022-10-16T06:27:04;25.20;;;22.58;;
57846;SDS011;43675;50.030;21.952;2022-10-16T06:29:30;25.82;;;22.48;;
57846;SDS011;43675;50.030;21.952;2022-10-16T06:31:55;24.37;;;22.22;;
57846;SDS011;43675;50.030;21.952;2022-10-16T06:34:21;23.70;;;21.50;;
57846;SDS011;43675;50.030;21.952;2022-10-16T06:36:47;23.90;;;21.50;;
57846;SDS011;43675;50.030;21.952;2022-10-16T06:39:12;23.02;;;20.82;;
57846;SDS011;43675;50.030;21.952;2022-10-16T06:41:38;23.42;;;21.33;;
57846;SDS011;43675;50.030;21.952;2022-10-16T06:44:07;23.32;;;21.02;;
57846;SDS011;43675;50.030;21.952;2022-10-16T06:46:32;23.07;;;20.82;;
57846;SDS011;43675;50.030;21.952;2022-10-16T06:48:59;22.45;;;20.55;;
57846;SDS011;43675;50.030;21.952;2022-10-16T06:51:32;22.93;;;20.60;;
57846;SDS011;43675;50.030;21.952;2022-10-16T06:53:57;23.27;;;20.85;;
57846;SDS011;43675;50.030;21.952;2022-10-16T06:56:24;22.42;;;20.35;;
57846;SDS011;43675;50.030;21.952;2022-10-16T06:58:51;23.57;;;21.48;;
57846;SDS011;43675;50.030;21.952;2022-10-16T07:01:19;22.25;;;20.15;;
57846;SDS011;43675;50.030;21.952;2022-10-16T07:03:46;22.60;;;20.50;;
57846;SDS011;43675;50.030;21.952;2022-10-16T07:06:14;22.75;;;20.62;;
57846;SDS011;43675;50.030;21.952;2022-10-16T07:08:42;24.15;;;21.95;;
57846;SDS011;43675;50.030;21.952;2022-10-16T07:11:13;24.70;;;22.30;;
57846;SDS011;43675;50.030;21.952;2022-10-16T07:13:41;23.57;;;21.40;;
57846;SDS011;43675;50.030;21.952;2022-10-16T07:16:10;24.60;;;22.20;;
57846;SDS011;43675;50.030;21.952;2022-10-16T07:18:43;24.67;;;22.13;;
57846;SDS011;43675;50.030;21.952;2022-10-16T07:21:11;24.25;;;21.95;;
57846;SDS011;43675;50.030;21.952;2022-10-16T07:23:38;24.10;;;21.70;;
57846;SDS011;43675;50.030;21.952;2022-10-16T07:26:04;23.22;;;20.92;;
57846;SDS011;43675;50.030;21.952;2022-10-16T07:28:31;23.92;;;21.37;;
57846;SDS011;43675;50.030;21.952;2022-10-16T07:31:01;23.05;;;20.85;;
57846;SDS011;43675;50.030;21.952;2022-10-16T07:33:28;23.02;;;20.70;;
57846;SDS011;43675;50.030;21.952;2022-10-16T07:36:01;23.12;;;20.77;;
57846;SDS011;43675;50.030;21.952;2022-10-16T07:38:27;21.23;;;19.30;;
57846;SDS011;43675;50.030;21.952;2022-10-16T07:41:00;22.55;;;20.45;;
57846;SDS011;43675;50.030;21.952;2022-10-16T07:43:24;22.07;;;19.92;;
57846;SDS011;43675;50.030;21.952;2022-10-16T07:45:50;21.65;;;19.73;;
57846;SDS011;43675;50.030;21.952;2022-10-16T07:48:16;23.30;;;20.57;;
57846;SDS011;43675;50.030;21.952;2022-10-16T07:50:50;26.40;;;21.00;;
57846;SDS011;43675;50.030;21.952;2022-10-16T07:53:15;23.83;;;21.42;;
57846;SDS011;43675;50.030;21.952;2022-10-16T07:55:41;22.90;;;20.48;;
57846;SDS011;43675;50.030;21.952;2022-10-16T07:58:07;24.00;;;21.37;;
57846;SDS011;43675;50.030;21.952;2022-10-16T08:00:33;25.30;;;22.48;;
57846;SDS011;43675;50.030;21.952;2022-10-16T08:03:00;24.70;;;21.75;;
57846;SDS011;43675;50.030;21.952;2022-10-16T08:05:26;24.92;;;22.48;;
57846;SDS011;43675;50.030;21.952;2022-10-16T08:07:53;23.95;;;21.68;;
57846;SDS011;43675;50.030;21.952;2022-10-16T08:10:19;23.65;;;21.35;;
57846;SDS011;43675;50.030;21.952;2022-10-16T08:12:46;21.52;;;19.52;;
57846;SDS011;43675;50.030;21.952;2022-10-16T08:15:19;22.87;;;20.85;;
57846;SDS011;43675;50.030;21.952;2022-10-16T08:17:53;22.67;;;20.02;;
57846;SDS011;43675;50.030;21.952;2022-10-16T08:20:32;23.60;;;21.42;;
57846;SDS011;43675;50.030;21.952;2022-10-16T08:23:02;22.82;;;20.45;;
57846;SDS011;43675;50.030;21.952;2022-10-16T08:25:27;22.48;;;20.25;;
57846;SDS011;43675;50.030;21.952;2022-10-16T08:27:54;20.92;;;18.98;;
57846;SDS011;43675;50.030;21.952;2022-10-16T08:30:20;21.93;;;20.00;;
57846;SDS011;43675;50.030;21.952;2022-10-16T08:32:47;21.35;;;19.35;;
57846;SDS011;43675;50.030;21.952;2022-10-16T08:35:14;21.33;;;19.27;;
57846;SDS011;43675;50.030;21.952;2022-10-16T08:37:40;20.45;;;18.45;;
57846;SDS011;43675;50.030;21.952;2022-10-16T08:40:06;22.13;;;20.08;;
57846;SDS011;43675;50.030;21.952;2022-10-16T08:42:42;22.07;;;20.08;;
57846;SDS011;43675;50.030;21.952;2022-10-16T08:45:32;20.80;;;19.00;;
57846;SDS011;43675;50.030;21.952;2022-10-16T08:50:38;21.82;;;19.77;;
57846;SDS011;43675;50.030;21.952;2022-10-16T08:53:26;21.95;;;20.05;;
57846;SDS011;43675;50.030;21.952;2022-10-16T08:55:55;21.77;;;19.82;;
57846;SDS011;43675;50.030;21.952;2022-10-16T08:58:22;21.62;;;19.50;;
57846;SDS011;43675;50.030;21.952;2022-10-16T09:00:51;21.30;;;19.32;;
57846;SDS011;43675;50.030;21.952;2022-10-16T09:06:46;21.25;;;19.15;;
57846;SDS011;43675;50.030;21.952;2022-10-16T09:25:37;21.80;;;19.55;;
57846;SDS011;43675;50.030;21.952;2022-10-16T09:28:07;21.17;;;19.10;;
57846;SDS011;43675;50.030;21.952;2022-10-16T09:30:34;20.92;;;19.02;;
57846;SDS011;43675;50.030;21.952;2022-10-16T09:33:00;21.30;;;19.37;;
57846;SDS011;43675;50.030;21.952;2022-10-16T09:35:31;21.12;;;19.05;;
57846;SDS011;43675;50.030;21.952;2022-10-16T09:38:06;21.02;;;19.23;;
57846;SDS011;43675;50.030;21.952;2022-10-16T09:40:34;20.82;;;18.92;;
57846;SDS011;43675;50.030;21.952;2022-10-16T09:45:53;21.35;;;19.30;;
57846;SDS011;43675;50.030;21.952;2022-10-16T09:50:57;20.82;;;18.82;;
57846;SDS011;43675;50.030;21.952;2022-10-16T09:53:24;20.85;;;18.90;;
57846;SDS011;43675;50.030;21.952;2022-10-16T09:55:53;20.65;;;18.75;;
57846;SDS011;43675;50.030;21.952;2022-10-16T09:58:22;20.70;;;18.70;;
57846;SDS011;43675;50.030;21.952;2022-10-16T10:00:49;20.95;;;19.00;;
57846;SDS011;43675;50.030;21.952;2022-10-16T10:03:24;22.15;;;18.70;;
57846;SDS011;43675;50.030;21.952;2022-10-16T10:05:47;20.77;;;18.87;;
57846;SDS011;43675;50.030;21.952;2022-10-16T10:08:13;20.55;;;18.65;;
57846;SDS011;43675;50.030;21.952;2022-10-16T10:10:42;20.82;;;19.02;;
57846;SDS011;43675;50.030;21.952;2022-10-16T10:13:19;21.35;;;19.42;;
57846;SDS011;43675;50.030;21.952;2022-10-16T10:15:46;21.10;;;19.20;;
57846;SDS011;43675;50.030;21.952;2022-10-16T10:18:18;20.30;;;18.40;;
57846;SDS011;43675;50.030;21.952;2022-10-16T10:20:45;20.90;;;18.62;;
57846;SDS011;43675;50.030;21.952;2022-10-16T10:23:20;20.02;;;18.32;;
57846;SDS011;43675;50.030;21.952;2022-10-16T10:25:57;20.55;;;18.73;;
57846;SDS011;43675;50.030;21.952;2022-10-16T10:28:42;19.48;;;17.73;;
57846;SDS011;43675;50.030;21.952;2022-10-16T10:31:19;20.12;;;18.32;;
57846;SDS011;43675;50.030;21.952;2022-10-16T10:34:01;19.50;;;17.80;;
57846;SDS011;43675;50.030;21.952;2022-10-16T10:36:46;19.57;;;17.50;;
57846;SDS011;43675;50.030;21.952;2022-10-16T10:39:30;20.32;;;18.40;;
57846;SDS011;43675;50.030;21.952;2022-10-16T10:42:13;23.22;;;19.50;;
57846;SDS011;43675;50.030;21.952;2022-10-16T10:52:56;20.40;;;18.50;;
57846;SDS011;43675;50.030;21.952;2022-10-16T10:55:33;21.97;;;19.95;;
57846;SDS011;43675;50.030;21.952;2022-10-16T10:58:20;20.82;;;18.75;;
57846;SDS011;43675;50.030;21.952;2022-10-16T11:00:51;20.02;;;18.42;;
57846;SDS011;43675;50.030;21.952;2022-10-16T11:06:20;20.52;;;18.73;;
57846;SDS011;43675;50.030;21.952;2022-10-16T11:08:59;20.72;;;18.82;;
57846;SDS011;43675;50.030;21.952;2022-10-16T11:14:04;20.90;;;18.98;;
57846;SDS011;43675;50.030;21.952;2022-10-16T11:30:20;21.05;;;19.05;;
57846;SDS011;43675;50.030;21.952;2022-10-16T11:35:19;20.82;;;19.12;;
57846;SDS011;43675;50.030;21.952;2022-10-16T11:37:49;21.80;;;19.73;;
57846;SDS011;43675;50.030;21.952;2022-10-16T11:40:28;22.65;;;20.68;;
57846;SDS011;43675;50.030;21.952;2022-10-16T11:43:00;24.30;;;20.27;;
57846;SDS011;43675;50.030;21.952;2022-10-16T11:45:33;21.35;;;19.40;;
57846;SDS011;43675;50.030;21.952;2022-10-16T11:48:00;21.52;;;19.40;;
57846;SDS011;43675;50.030;21.952;2022-10-16T11:50:31;21.27;;;19.30;;
57846;SDS011;43675;50.030;21.952;2022-10-16T11:55:33;20.97;;;19.05;;
57846;SDS011;43675;50.030;21.952;2022-10-16T11:58:22;21.65;;;19.70;;
57846;SDS011;43675;50.030;21.952;2022-10-16T12:03:35;19.85;;;18.20;;
57846;SDS011;43675;50.030;21.952;2022-10-16T12:08:48;20.43;;;18.57;;
57846;SDS011;43675;50.030;21.952;2022-10-16T12:19:23;19.70;;;18.00;;
57846;SDS011;43675;50.030;21.952;2022-10-16T12:21:49;19.70;;;17.92;;
57846;SDS011;43675;50.030;21.952;2022-10-16T12:24:36;20.55;;;18.55;;
57846;SDS011;43675;50.030;21.952;2022-10-16T12:27:06;19.98;;;18.27;;
57846;SDS011;43675;50.030;21.952;2022-10-16T12:29:37;19.95;;;18.15;;
57846;SDS011;43675;50.030;21.952;2022-10-16T12:32:06;19.45;;;17.75;;
57846;SDS011;43675;50.030;21.952;2022-10-16T12:34:51;20.72;;;18.77;;
57846;SDS011;43675;50.030;21.952;2022-10-16T12:37:24;21.35;;;19.48;;
57846;SDS011;43675;50.030;21.952;2022-10-16T12:39:52;20.12;;;18.32;;
57846;SDS011;43675;50.030;21.952;2022-10-16T12:45:12;20.92;;;18.95;;
57846;SDS011;43675;50.030;21.952;2022-10-16T12:50:00;20.85;;;19.20;;
57846;SDS011;43675;50.030;21.952;2022-10-16T12:52:36;21.90;;;19.85;;
57846;SDS011;43675;50.030;21.952;2022-10-16T12:55:04;21.48;;;19.77;;
57846;SDS011;43675;50.030;21.952;2022-10-16T13:17:27;19.05;;;17.20;;
57846;SDS011;43675;50.030;21.952;2022-10-16T13:22:56;18.92;;;17.30;;
57846;SDS011;43675;50.030;21.952;2022-10-16T13:28:06;19.00;;;17.07;;
57846;SDS011;43675;50.030;21.952;2022-10-16T13:33:10;20.37;;;18.57;;
57846;SDS011;43675;50.030;21.952;2022-10-16T13:35:52;21.80;;;19.90;;
57846;SDS011;43675;50.030;21.952;2022-10-16T13:38:20;21.00;;;19.30;;
57846;SDS011;43675;50.030;21.952;2022-10-16T13:40:52;21.20;;;19.50;;
57846;SDS011;43675;50.030;21.952;2022-10-16T13:43:32;22.55;;;20.12;;
57846;SDS011;43675;50.030;21.952;2022-10-16T13:46:04;20.40;;;18.40;;
57846;SDS011;43675;50.030;21.952;2022-10-16T13:48:32;20.55;;;18.42;;
57846;SDS011;43675;50.030;21.952;2022-10-16T13:51:15;20.65;;;18.85;;
57846;SDS011;43675;50.030;21.952;2022-10-16T13:53:42;21.05;;;18.95;;
57846;SDS011;43675;50.030;21.952;2022-10-16T13:56:10;20.05;;;18.32;;
57846;SDS011;43675;50.030;21.952;2022-10-16T13:58:40;21.23;;;19.15;;
57846;SDS011;43675;50.030;21.952;2022-10-16T14:01:26;20.88;;;18.92;;
57846;SDS011;43675;50.030;21.952;2022-10-16T14:03:59;19.02;;;17.50;;
57846;SDS011;43675;50.030;21.952;2022-10-16T14:06:23;19.45;;;17.75;;
57846;SDS011;43675;50.030;21.952;2022-10-16T14:08:50;19.27;;;17.48;;
57846;SDS011;43675;50.030;21.952;2022-10-16T14:11:25;18.75;;;17.05;;
57846;SDS011;43675;50.030;21.952;2022-10-16T14:13:52;18.67;;;16.97;;
57846;SDS011;43675;50.030;21.952;2022-10-16T14:16:20;18.77;;;17.10;;
57846;SDS011;43675;50.030;21.952;2022-10-16T14:18:54;19.00;;;17.23;;
57846;SDS011;43675;50.030;21.952;2022-10-16T14:21:19;19.70;;;17.90;;
57846;SDS011;43675;50.030;21.952;2022-10-16T14:23:45;19.95;;;17.95;;
57846;SDS011;43675;50.030;21.952;2022-10-16T14:28:40;20.08;;;18.17;;
57846;SDS011;43675;50.030;21.952;2022-10-16T14:33:48;19.95;;;18.12;;
57846;SDS011;43675;50.030;21.952;2022-10-16T14:36:14;19.60;;;17.90;;
57846;SDS011;43675;50.030;21.952;2022-10-16T14:38:42;19.98;;;18.37;;
57846;SDS011;43675;50.030;21.952;2022-10-16T14:41:27;20.40;;;18.50;;
57846;SDS011;43675;50.030;21.952;2022-10-16T14:44:04;21.87;;;19.35;;
57846;SDS011;43675;50.030;21.952;2022-10-16T14:46:32;20.30;;;18.50;;
57846;SDS011;43675;50.030;21.952;2022-10-16T14:51:39;20.37;;;18.45;;
57846;SDS011;43675;50.030;21.952;2022-10-16T14:54:07;20.45;;;17.98;;
57846;SDS011;43675;50.030;21.952;2022-10-16T14:56:35;20.05;;;18.15;;
57846;SDS011;43675;50.030;21.952;2022-10-16T14:59:03;19.90;;;18.27;;
57846;SDS011;43675;50.030;21.952;2022-10-16T15:01:29;20.40;;;18.48;;
57846;SDS011;43675;50.030;21.952;2022-10-16T15:03:55;21.23;;;19.42;;
57846;SDS011;43675;50.030;21.952;2022-10-16T15:06:33;20.55;;;18.75;;
57846;SDS011;43675;50.030;21.952;2022-10-16T15:08:59;21.07;;;18.62;;
57846;SDS011;43675;50.030;21.952;2022-10-16T15:11:25;20.92;;;19.02;;
57846;SDS011;43675;50.030;21.952;2022-10-16T15:13:51;20.97;;;19.02;;
57846;SDS011;43675;50.030;21.952;2022-10-16T15:16:16;22.58;;;20.37;;
57846;SDS011;43675;50.030;21.952;2022-10-16T15:18:42;28.77;;;25.85;;
57846;SDS011;43675;50.030;21.952;2022-10-16T15:21:10;22.55;;;20.25;;
57846;SDS011;43675;50.030;21.952;2022-10-16T15:23:37;22.60;;;20.45;;
57846;SDS011;43675;50.030;21.952;2022-10-16T15:26:10;22.17;;;20.15;;
57846;SDS011;43675;50.030;21.952;2022-10-16T15:28:36;31.52;;;28.32;;
57846;SDS011;43675;50.030;21.952;2022-10-16T15:31:01;48.98;;;44.08;;
57846;SDS011;43675;50.030;21.952;2022-10-16T15:33:29;26.52;;;23.87;;
57846;SDS011;43675;50.030;21.952;2022-10-16T15:35:55;26.80;;;22.35;;
57846;SDS011;43675;50.030;21.952;2022-10-16T15:38:21;24.07;;;21.77;;
57846;SDS011;43675;50.030;21.952;2022-10-16T15:40:48;22.90;;;20.50;;
57846;SDS011;43675;50.030;21.952;2022-10-16T15:43:14;25.12;;;21.25;;
57846;SDS011;43675;50.030;21.952;2022-10-16T15:46:09;22.20;;;19.98;;
57846;SDS011;43675;50.030;21.952;2022-10-16T15:48:18;21.65;;;19.25;;
57846;SDS011;43675;50.030;21.952;2022-10-16T15:50:44;20.23;;;18.27;;
57846;SDS011;43675;50.030;21.952;2022-10-16T15:53:10;21.20;;;19.10;;
57846;SDS011;43675;50.030;21.952;2022-10-16T15:55:35;22.77;;;20.55;;
57846;SDS011;43675;50.030;21.952;2022-10-16T15:58:01;20.90;;;19.05;;
57846;SDS011;43675;50.030;21.952;2022-10-16T16:00:26;20.80;;;18.85;;
57846;SDS011;43675;50.030;21.952;2022-10-16T16:02:52;20.85;;;18.55;;
57846;SDS011;43675;50.030;21.952;2022-10-16T16:05:19;20.75;;;18.20;;
57846;SDS011;43675;50.030;21.952;2022-10-16T16:07:53;20.92;;;19.10;;
57846;SDS011;43675;50.030;21.952;2022-10-16T16:10:18;22.95;;;20.43;;
57846;SDS011;43675;50.030;21.952;2022-10-16T16:12:45;21.68;;;19.70;;
57846;SDS011;43675;50.030;21.952;2022-10-16T16:15:12;21.25;;;19.35;;
57846;SDS011;43675;50.030;21.952;2022-10-16T16:17:51;22.17;;;19.90;;
57846;SDS011;43675;50.030;21.952;2022-10-16T16:20:17;30.48;;;24.43;;
57846;SDS011;43675;50.030;21.952;2022-10-16T16:22:43;24.02;;;21.45;;
57846;SDS011;43675;50.030;21.952;2022-10-16T16:25:08;25.32;;;22.70;;
57846;SDS011;43675;50.030;21.952;2022-10-16T16:27:34;31.95;;;23.22;;